sensor_id;sensor_type;location;lat;lon;timestamp;P1;durP1;ratioP1;P2;durP2;ratioP2
51034;SDS011;37062;52.546;13.230;2023-01-09T00:01:38;6.70;;;5.30;;
51034;SDS011;37062;52.546;13.230;2023-01-09T00:04:08;6.32;;;4.97;;
51034;SDS011;37062;52.546;13.230;2023-01-09T00:06:36;6.18;;;4.90;;
51034;SDS011;37062;52.546;13.230;2023-01-09T00:09:08;6.18;;;4.70;;
51034;SDS011;37062;52.546;13.230;2023-01-09T00:11:37;7.05;;;5.60;;
51034;SDS011;37062;52.546;13.230;2023-01-09T00:14:06;6.60;;;5.32;;
51034;SDS011;37062;52.546;13.230;2023-01-09T00:16:36;5.88;;;4.90;;
51034;SDS011;37062;52.546;13.230;2023-01-09T00:19:04;7.15;;;5.68;;
51034;SDS011;37062;52.546;13.230;2023-01-09T00:21:32;6.20;;;5.13;;
51034;SDS011;37062;52.546;13.230;2023-01-09T00:24:02;7.45;;;5.18;;
51034;SDS011;37062;52.546;13.230;2023-01-09T00:26:30;6.22;;;5.03;;
51034;SDS011;37062;52.546;13.230;2023-01-09T00:29:01;7.70;;;5.40;;
51034;SDS011;37062;52.546;13.230;2023-01-09T00:31:31;6.22;;;5.28;;
51034;SDS011;37062;52.546;13.230;2023-01-09T00:34:00;12.13;;;6.00;;
51034;SDS011;37062;52.546;13.230;2023-01-09T00:36:31;8.73;;;5.18;;
51034;SDS011;37062;52.546;13.230;2023-01-09T00:39:00;6.32;;;4.95;;
51034;SDS011;37062;52.546;13.230;2023-01-09T00:41:29;6.00;;;4.78;;
51034;SDS011;37062;52.546;13.230;2023-01-09T00:44:01;6.82;;;5.03;;
51034;SDS011;37062;52.546;13.230;2023-01-09T00:46:36;6.57;;;5.25;;
51034;SDS011;37062;52.546;13.230;2023-01-09T00:49:08;6.63;;;5.50;;
51034;SDS011;37062;52.546;13.230;2023-01-09T00:51:37;6.95;;;5.40;;
51034;SDS011;37062;52.546;13.230;2023-01-09T00:54:07;6.80;;;5.55;;
51034;SDS011;37062;52.546;13.230;2023-01-09T00:56:37;7.93;;;5.32;;
51034;SDS011;37062;52.546;13.230;2023-01-09T00:59:05;7.80;;;5.90;;
51034;SDS011;37062;52.546;13.230;2023-01-09T01:01:35;6.75;;;5.53;;
51034;SDS011;37062;52.546;13.230;2023-01-09T01:04:03;6.65;;;5.25;;
51034;SDS011;37062;52.546;13.230;2023-01-09T01:06:45;7.97;;;5.65;;
51034;SDS011;37062;52.546;13.230;2023-01-09T01:09:39;7.78;;;6.05;;
51034;SDS011;37062;52.546;13.230;2023-01-09T01:12:07;8.85;;;6.55;;
51034;SDS011;37062;52.546;13.230;2023-01-09T01:14:36;8.18;;;6.47;;
51034;SDS011;37062;52.546;13.230;2023-01-09T01:17:06;9.05;;;6.45;;
51034;SDS011;37062;52.546;13.230;2023-01-09T01:19:34;7.28;;;6.13;;
51034;SDS011;37062;52.546;13.230;2023-01-09T01:22:03;7.25;;;5.75;;
51034;SDS011;37062;52.546;13.230;2023-01-09T01:24:31;7.10;;;6.13;;
51034;SDS011;37062;52.546;13.230;2023-01-09T01:27:00;8.98;;;6.40;;
51034;SDS011;37062;52.546;13.230;2023-01-09T01:29:28;7.80;;;6.22;;
51034;SDS011;37062;52.546;13.230;2023-01-09T01:31:56;8.40;;;6.63;;
51034;SDS011;37062;52.546;13.230;2023-01-09T01:34:26;8.32;;;6.50;;
51034;SDS011;37062;52.546;13.230;2023-01-09T01:36:55;7.65;;;6.40;;
51034;SDS011;37062;52.546;13.230;2023-01-09T01:39:23;7.72;;;6.63;;
51034;SDS011;37062;52.546;13.230;2023-01-09T01:41:51;8.90;;;6.75;;
51034;SDS011;37062;52.546;13.230;2023-01-09T01:47:31;10.77;;;7.47;;
51034;SDS011;37062;52.546;13.230;2023-01-09T01:50:07;9.48;;;6.53;;
51034;SDS011;37062;52.546;13.230;2023-01-09T01:52:40;7.78;;;6.93;;
51034;SDS011;37062;52.546;13.230;2023-01-09T01:55:12;8.68;;;7.25;;
51034;SDS011;37062;52.546;13.230;2023-01-09T01:57:41;7.95;;;6.22;;
51034;SDS011;37062;52.546;13.230;2023-01-09T02:00:12;8.38;;;7.45;;
51034;SDS011;37062;52.546;13.230;2023-01-09T02:02:41;9.68;;;7.07;;
51034;SDS011;37062;52.546;13.230;2023-01-09T02:05:12;6.93;;;6.20;;
51034;SDS011;37062;52.546;13.230;2023-01-09T02:07:40;10.43;;;7.95;;
51034;SDS011;37062;52.546;13.230;2023-01-09T02:10:09;10.52;;;8.20;;
51034;SDS011;37062;52.546;13.230;2023-01-09T02:12:37;9.35;;;7.97;;
51034;SDS011;37062;52.546;13.230;2023-01-09T02:15:06;9.73;;;7.80;;
51034;SDS011;37062;52.546;13.230;2023-01-09T02:17:50;11.45;;;8.45;;
51034;SDS011;37062;52.546;13.230;2023-01-09T02:20:41;10.70;;;8.32;;
51034;SDS011;37062;52.546;13.230;2023-01-09T02:23:39;11.23;;;8.57;;
51034;SDS011;37062;52.546;13.230;2023-01-09T02:26:34;14.95;;;9.52;;
51034;SDS011;37062;52.546;13.230;2023-01-09T02:32:17;11.38;;;8.30;;
51034;SDS011;37062;52.546;13.230;2023-01-09T02:34:55;11.80;;;8.88;;
51034;SDS011;37062;52.546;13.230;2023-01-09T02:37:35;11.07;;;8.88;;
51034;SDS011;37062;52.546;13.230;2023-01-09T02:40:13;11.98;;;9.82;;
51034;SDS011;37062;52.546;13.230;2023-01-09T02:42:47;11.77;;;9.10;;
51034;SDS011;37062;52.546;13.230;2023-01-09T02:45:16;12.18;;;9.18;;
51034;SDS011;37062;52.546;13.230;2023-01-09T02:47:46;11.05;;;9.20;;
51034;SDS011;37062;52.546;13.230;2023-01-09T02:50:15;12.10;;;9.43;;
51034;SDS011;37062;52.546;13.230;2023-01-09T02:52:50;12.38;;;9.82;;
51034;SDS011;37062;52.546;13.230;2023-01-09T02:55:34;13.70;;;10.52;;
51034;SDS011;37062;52.546;13.230;2023-01-09T02:58:13;12.63;;;10.23;;
51034;SDS011;37062;52.546;13.230;2023-01-09T03:00:48;13.17;;;10.07;;
51034;SDS011;37062;52.546;13.230;2023-01-09T03:03:25;12.63;;;10.23;;
51034;SDS011;37062;52.546;13.230;2023-01-09T03:06:02;13.53;;;10.17;;
51034;SDS011;37062;52.546;13.230;2023-01-09T03:08:35;12.27;;;9.45;;
51034;SDS011;37062;52.546;13.230;2023-01-09T03:11:06;12.60;;;9.23;;
51034;SDS011;37062;52.546;13.230;2023-01-09T03:13:38;15.45;;;10.43;;
51034;SDS011;37062;52.546;13.230;2023-01-09T03:16:11;13.48;;;10.23;;
51034;SDS011;37062;52.546;13.230;2023-01-09T03:18:45;11.45;;;9.20;;
51034;SDS011;37062;52.546;13.230;2023-01-09T03:21:15;12.77;;;10.52;;
51034;SDS011;37062;52.546;13.230;2023-01-09T03:23:44;14.23;;;10.45;;
51034;SDS011;37062;52.546;13.230;2023-01-09T03:26:13;12.88;;;10.32;;
51034;SDS011;37062;52.546;13.230;2023-01-09T03:28:42;13.43;;;10.43;;
51034;SDS011;37062;52.546;13.230;2023-01-09T03:31:10;12.90;;;9.98;;
51034;SDS011;37062;52.546;13.230;2023-01-09T03:33:39;14.45;;;10.57;;
51034;SDS011;37062;52.546;13.230;2023-01-09T03:36:10;14.45;;;10.98;;
51034;SDS011;37062;52.546;13.230;2023-01-09T03:38:39;12.85;;;10.20;;
51034;SDS011;37062;52.546;13.230;2023-01-09T03:41:07;13.07;;;10.57;;
51034;SDS011;37062;52.546;13.230;2023-01-09T03:43:36;12.65;;;10.50;;
51034;SDS011;37062;52.546;13.230;2023-01-09T03:46:04;12.43;;;10.15;;
51034;SDS011;37062;52.546;13.230;2023-01-09T03:48:32;11.60;;;9.77;;
51034;SDS011;37062;52.546;13.230;2023-01-09T03:51:01;12.60;;;10.52;;
51034;SDS011;37062;52.546;13.230;2023-01-09T03:53:30;14.05;;;10.65;;
51034;SDS011;37062;52.546;13.230;2023-01-09T03:55:58;13.70;;;10.90;;
51034;SDS011;37062;52.546;13.230;2023-01-09T03:58:27;13.40;;;10.63;;
51034;SDS011;37062;52.546;13.230;2023-01-09T04:00:58;12.75;;;10.45;;
51034;SDS011;37062;52.546;13.230;2023-01-09T04:03:27;15.00;;;11.02;;
51034;SDS011;37062;52.546;13.230;2023-01-09T04:05:56;16.77;;;11.50;;
51034;SDS011;37062;52.546;13.230;2023-01-09T04:08:24;14.05;;;11.35;;
51034;SDS011;37062;52.546;13.230;2023-01-09T04:10:53;14.50;;;11.10;;
51034;SDS011;37062;52.546;13.230;2023-01-09T04:13:21;15.63;;;12.23;;
51034;SDS011;37062;52.546;13.230;2023-01-09T04:15:50;15.23;;;12.15;;
51034;SDS011;37062;52.546;13.230;2023-01-09T04:18:18;14.85;;;11.48;;
51034;SDS011;37062;52.546;13.230;2023-01-09T04:20:46;16.63;;;12.15;;
51034;SDS011;37062;52.546;13.230;2023-01-09T04:23:15;15.85;;;11.88;;
51034;SDS011;37062;52.546;13.230;2023-01-09T04:25:43;15.32;;;12.27;;
51034;SDS011;37062;52.546;13.230;2023-01-09T04:28:14;14.38;;;11.70;;
51034;SDS011;37062;52.546;13.230;2023-01-09T04:30:42;14.68;;;11.82;;
51034;SDS011;37062;52.546;13.230;2023-01-09T04:33:10;15.00;;;11.70;;
51034;SDS011;37062;52.546;13.230;2023-01-09T04:35:38;14.85;;;11.80;;
51034;SDS011;37062;52.546;13.230;2023-01-09T04:38:06;16.38;;;12.27;;
51034;SDS011;37062;52.546;13.230;2023-01-09T04:40:34;16.30;;;12.25;;
51034;SDS011;37062;52.546;13.230;2023-01-09T04:43:02;15.65;;;11.32;;
51034;SDS011;37062;52.546;13.230;2023-01-09T04:45:32;14.52;;;12.32;;
51034;SDS011;37062;52.546;13.230;2023-01-09T04:48:00;15.50;;;12.43;;
51034;SDS011;37062;52.546;13.230;2023-01-09T04:50:29;16.70;;;11.48;;
51034;SDS011;37062;52.546;13.230;2023-01-09T04:52:57;14.93;;;11.98;;
51034;SDS011;37062;52.546;13.230;2023-01-09T04:55:25;16.98;;;12.15;;
51034;SDS011;37062;52.546;13.230;2023-01-09T04:57:53;18.15;;;12.10;;
51034;SDS011;37062;52.546;13.230;2023-01-09T05:00:21;14.20;;;11.55;;
51034;SDS011;37062;52.546;13.230;2023-01-09T05:02:51;14.75;;;11.98;;
51034;SDS011;37062;52.546;13.230;2023-01-09T05:05:19;14.20;;;11.77;;
51034;SDS011;37062;52.546;13.230;2023-01-09T05:07:47;16.00;;;11.88;;
51034;SDS011;37062;52.546;13.230;2023-01-09T05:10:15;16.92;;;12.50;;
51034;SDS011;37062;52.546;13.230;2023-01-09T05:12:43;14.38;;;11.60;;
51034;SDS011;37062;52.546;13.230;2023-01-09T05:15:12;14.98;;;11.55;;
51034;SDS011;37062;52.546;13.230;2023-01-09T05:17:40;14.27;;;11.57;;
51034;SDS011;37062;52.546;13.230;2023-01-09T05:20:09;15.38;;;12.52;;
51034;SDS011;37062;52.546;13.230;2023-01-09T05:22:38;15.65;;;11.93;;
51034;SDS011;37062;52.546;13.230;2023-01-09T05:25:06;15.65;;;11.77;;
51034;SDS011;37062;52.546;13.230;2023-01-09T05:27:35;16.65;;;12.55;;
51034;SDS011;37062;52.546;13.230;2023-01-09T05:30:03;17.33;;;12.52;;
51034;SDS011;37062;52.546;13.230;2023-01-09T05:32:32;15.63;;;11.80;;
51034;SDS011;37062;52.546;13.230;2023-01-09T05:35:00;20.80;;;12.90;;
51034;SDS011;37062;52.546;13.230;2023-01-09T05:37:29;16.95;;;11.68;;
51034;SDS011;37062;52.546;13.230;2023-01-09T05:39:58;17.60;;;11.85;;
51034;SDS011;37062;52.546;13.230;2023-01-09T05:42:26;15.52;;;11.18;;
51034;SDS011;37062;52.546;13.230;2023-01-09T05:44:54;15.95;;;12.27;;
51034;SDS011;37062;52.546;13.230;2023-01-09T05:47:22;14.82;;;11.10;;
51034;SDS011;37062;52.546;13.230;2023-01-09T05:49:50;13.75;;;10.43;;
51034;SDS011;37062;52.546;13.230;2023-01-09T05:52:21;14.55;;;11.98;;
51034;SDS011;37062;52.546;13.230;2023-01-09T05:54:51;14.38;;;11.52;;
51034;SDS011;37062;52.546;13.230;2023-01-09T05:57:19;15.30;;;11.80;;
51034;SDS011;37062;52.546;13.230;2023-01-09T05:59:48;15.77;;;11.75;;
51034;SDS011;37062;52.546;13.230;2023-01-09T06:02:16;15.85;;;11.57;;
51034;SDS011;37062;52.546;13.230;2023-01-09T06:04:44;15.07;;;11.32;;
51034;SDS011;37062;52.546;13.230;2023-01-09T06:07:13;16.52;;;11.40;;
51034;SDS011;37062;52.546;13.230;2023-01-09T06:09:46;15.98;;;11.63;;
51034;SDS011;37062;52.546;13.230;2023-01-09T06:12:16;20.95;;;12.75;;
51034;SDS011;37062;52.546;13.230;2023-01-09T06:14:44;16.08;;;12.05;;
51034;SDS011;37062;52.546;13.230;2023-01-09T06:17:12;17.60;;;12.25;;
51034;SDS011;37062;52.546;13.230;2023-01-09T06:19:40;17.45;;;12.68;;
51034;SDS011;37062;52.546;13.230;2023-01-09T06:22:08;16.10;;;11.77;;
51034;SDS011;37062;52.546;13.230;2023-01-09T06:24:37;19.40;;;12.73;;
51034;SDS011;37062;52.546;13.230;2023-01-09T06:27:05;16.67;;;12.95;;
51034;SDS011;37062;52.546;13.230;2023-01-09T06:29:34;20.35;;;13.65;;
51034;SDS011;37062;52.546;13.230;2023-01-09T06:32:03;17.48;;;12.90;;
51034;SDS011;37062;52.546;13.230;2023-01-09T06:34:31;18.75;;;13.30;;
51034;SDS011;37062;52.546;13.230;2023-01-09T06:36:59;19.50;;;13.32;;
51034;SDS011;37062;52.546;13.230;2023-01-09T06:39:27;18.13;;;12.68;;
51034;SDS011;37062;52.546;13.230;2023-01-09T06:41:56;16.40;;;12.82;;
51034;SDS011;37062;52.546;13.230;2023-01-09T06:44:24;19.10;;;14.05;;
51034;SDS011;37062;52.546;13.230;2023-01-09T06:46:53;20.15;;;14.07;;
51034;SDS011;37062;52.546;13.230;2023-01-09T06:49:22;20.38;;;13.93;;
51034;SDS011;37062;52.546;13.230;2023-01-09T06:51:50;17.20;;;12.80;;
51034;SDS011;37062;52.546;13.230;2023-01-09T06:54:19;19.65;;;13.90;;
51034;SDS011;37062;52.546;13.230;2023-01-09T06:56:47;21.23;;;14.70;;
51034;SDS011;37062;52.546;13.230;2023-01-09T06:59:16;19.10;;;13.93;;
51034;SDS011;37062;52.546;13.230;2023-01-09T07:01:44;20.92;;;14.15;;
51034;SDS011;37062;52.546;13.230;2023-01-09T07:04:13;19.05;;;14.05;;
51034;SDS011;37062;52.546;13.230;2023-01-09T07:06:45;19.95;;;15.35;;
51034;SDS011;37062;52.546;13.230;2023-01-09T07:09:14;23.00;;;14.48;;
51034;SDS011;37062;52.546;13.230;2023-01-09T07:11:42;19.48;;;13.95;;
51034;SDS011;37062;52.546;13.230;2023-01-09T07:14:10;20.27;;;13.77;;
51034;SDS011;37062;52.546;13.230;2023-01-09T07:16:38;17.33;;;13.05;;
51034;SDS011;37062;52.546;13.230;2023-01-09T07:19:06;18.25;;;13.75;;
51034;SDS011;37062;52.546;13.230;2023-01-09T07:21:39;17.95;;;13.20;;
51034;SDS011;37062;52.546;13.230;2023-01-09T07:24:07;20.83;;;13.75;;
51034;SDS011;37062;52.546;13.230;2023-01-09T07:26:35;22.75;;;14.60;;
51034;SDS011;37062;52.546;13.230;2023-01-09T07:29:03;21.58;;;15.25;;
51034;SDS011;37062;52.546;13.230;2023-01-09T07:31:32;23.35;;;14.57;;
51034;SDS011;37062;52.546;13.230;2023-01-09T07:34:00;19.52;;;13.48;;
51034;SDS011;37062;52.546;13.230;2023-01-09T07:36:28;20.35;;;14.60;;
51034;SDS011;37062;52.546;13.230;2023-01-09T07:38:57;20.42;;;14.57;;
51034;SDS011;37062;52.546;13.230;2023-01-09T07:41:25;21.50;;;15.98;;
51034;SDS011;37062;52.546;13.230;2023-01-09T07:43:54;20.70;;;14.88;;
51034;SDS011;37062;52.546;13.230;2023-01-09T07:46:23;23.52;;;14.48;;
51034;SDS011;37062;52.546;13.230;2023-01-09T07:48:51;21.02;;;14.65;;
51034;SDS011;37062;52.546;13.230;2023-01-09T07:51:19;21.05;;;14.45;;
51034;SDS011;37062;52.546;13.230;2023-01-09T07:53:48;19.70;;;13.77;;
51034;SDS011;37062;52.546;13.230;2023-01-09T07:56:17;19.35;;;14.50;;
51034;SDS011;37062;52.546;13.230;2023-01-09T07:58:45;17.95;;;13.32;;
51034;SDS011;37062;52.546;13.230;2023-01-09T08:01:13;19.13;;;12.85;;
51034;SDS011;37062;52.546;13.230;2023-01-09T08:03:42;16.98;;;12.95;;
51034;SDS011;37062;52.546;13.230;2023-01-09T08:06:10;19.48;;;14.05;;
51034;SDS011;37062;52.546;13.230;2023-01-09T08:08:38;19.10;;;13.55;;
51034;SDS011;37062;52.546;13.230;2023-01-09T08:11:06;21.67;;;13.75;;
51034;SDS011;37062;52.546;13.230;2023-01-09T08:13:36;18.70;;;13.35;;
51034;SDS011;37062;52.546;13.230;2023-01-09T08:16:04;18.92;;;12.60;;
51034;SDS011;37062;52.546;13.230;2023-01-09T08:18:33;16.42;;;12.70;;
51034;SDS011;37062;52.546;13.230;2023-01-09T08:21:01;17.33;;;12.38;;
51034;SDS011;37062;52.546;13.230;2023-01-09T08:23:29;18.80;;;12.65;;
51034;SDS011;37062;52.546;13.230;2023-01-09T08:25:58;16.05;;;11.77;;
51034;SDS011;37062;52.546;13.230;2023-01-09T08:28:26;19.02;;;13.05;;
51034;SDS011;37062;52.546;13.230;2023-01-09T08:30:56;18.25;;;13.00;;
51034;SDS011;37062;52.546;13.230;2023-01-09T08:33:24;18.23;;;12.10;;
51034;SDS011;37062;52.546;13.230;2023-01-09T08:35:52;18.35;;;12.77;;
51034;SDS011;37062;52.546;13.230;2023-01-09T08:38:21;18.15;;;13.10;;
51034;SDS011;37062;52.546;13.230;2023-01-09T08:40:49;17.65;;;12.77;;
51034;SDS011;37062;52.546;13.230;2023-01-09T08:43:17;18.27;;;13.07;;
51034;SDS011;37062;52.546;13.230;2023-01-09T08:46:04;19.13;;;13.13;;
51034;SDS011;37062;52.546;13.230;2023-01-09T08:48:53;16.40;;;12.43;;
51034;SDS011;37062;52.546;13.230;2023-01-09T08:51:21;17.95;;;13.10;;
51034;SDS011;37062;52.546;13.230;2023-01-09T08:53:49;18.10;;;12.60;;
51034;SDS011;37062;52.546;13.230;2023-01-09T08:56:18;20.60;;;14.05;;
51034;SDS011;37062;52.546;13.230;2023-01-09T08:58:46;17.35;;;12.98;;
51034;SDS011;37062;52.546;13.230;2023-01-09T09:01:15;16.40;;;12.40;;
51034;SDS011;37062;52.546;13.230;2023-01-09T09:03:43;17.40;;;12.57;;
51034;SDS011;37062;52.546;13.230;2023-01-09T09:06:11;19.38;;;12.98;;
51034;SDS011;37062;52.546;13.230;2023-01-09T09:08:40;17.70;;;12.48;;
51034;SDS011;37062;52.546;13.230;2023-01-09T09:11:08;17.15;;;13.05;;
51034;SDS011;37062;52.546;13.230;2023-01-09T09:13:37;15.23;;;11.68;;
51034;SDS011;37062;52.546;13.230;2023-01-09T09:16:05;16.55;;;12.23;;
51034;SDS011;37062;52.546;13.230;2023-01-09T09:18:35;18.38;;;11.52;;
51034;SDS011;37062;52.546;13.230;2023-01-09T09:21:03;13.55;;;10.88;;
51034;SDS011;37062;52.546;13.230;2023-01-09T09:23:31;15.45;;;11.10;;
51034;SDS011;37062;52.546;13.230;2023-01-09T09:25:59;17.42;;;10.25;;
51034;SDS011;37062;52.546;13.230;2023-01-09T09:28:27;13.65;;;10.70;;
51034;SDS011;37062;52.546;13.230;2023-01-09T09:30:55;12.55;;;9.88;;
51034;SDS011;37062;52.546;13.230;2023-01-09T09:33:24;15.38;;;11.18;;
51034;SDS011;37062;52.546;13.230;2023-01-09T09:35:53;12.55;;;9.73;;
51034;SDS011;37062;52.546;13.230;2023-01-09T09:38:23;14.40;;;11.07;;
51034;SDS011;37062;52.546;13.230;2023-01-09T09:40:55;17.13;;;11.05;;
51034;SDS011;37062;52.546;13.230;2023-01-09T09:44:03;13.15;;;9.48;;
51034;SDS011;37062;52.546;13.230;2023-01-09T09:47:05;13.30;;;10.07;;
51034;SDS011;37062;52.546;13.230;2023-01-09T09:49:44;13.18;;;9.50;;
51034;SDS011;37062;52.546;13.230;2023-01-09T09:52:22;12.73;;;9.13;;
51034;SDS011;37062;52.546;13.230;2023-01-09T09:54:57;11.90;;;9.40;;
51034;SDS011;37062;52.546;13.230;2023-01-09T09:57:31;12.27;;;8.90;;
51034;SDS011;37062;52.546;13.230;2023-01-09T10:00:03;13.05;;;8.70;;
51034;SDS011;37062;52.546;13.230;2023-01-09T10:02:38;14.75;;;10.88;;
51034;SDS011;37062;52.546;13.230;2023-01-09T10:05:18;11.63;;;8.80;;
51034;SDS011;37062;52.546;13.230;2023-01-09T10:07:51;12.00;;;8.43;;
51034;SDS011;37062;52.546;13.230;2023-01-09T10:10:21;12.00;;;9.27;;
51034;SDS011;37062;52.546;13.230;2023-01-09T10:12:56;12.35;;;8.90;;
51034;SDS011;37062;52.546;13.230;2023-01-09T10:15:47;14.40;;;9.20;;
51034;SDS011;37062;52.546;13.230;2023-01-09T10:18:24;13.85;;;8.65;;
51034;SDS011;37062;52.546;13.230;2023-01-09T10:20:58;11.52;;;8.60;;
51034;SDS011;37062;52.546;13.230;2023-01-09T10:23:39;11.77;;;9.10;;
51034;SDS011;37062;52.546;13.230;2023-01-09T10:26:27;11.35;;;8.27;;
51034;SDS011;37062;52.546;13.230;2023-01-09T10:29:05;12.52;;;8.68;;
51034;SDS011;37062;52.546;13.230;2023-01-09T10:31:44;12.23;;;8.80;;
51034;SDS011;37062;52.546;13.230;2023-01-09T10:34:26;11.38;;;8.02;;
51034;SDS011;37062;52.546;13.230;2023-01-09T10:37:04;9.60;;;7.43;;
51034;SDS011;37062;52.546;13.230;2023-01-09T10:39:40;11.70;;;8.23;;
51034;SDS011;37062;52.546;13.230;2023-01-09T10:42:15;10.50;;;7.55;;
51034;SDS011;37062;52.546;13.230;2023-01-09T10:44:49;9.05;;;6.25;;
51034;SDS011;37062;52.546;13.230;2023-01-09T10:47:25;7.60;;;6.28;;
51034;SDS011;37062;52.546;13.230;2023-01-09T10:49:56;8.20;;;5.68;;
51034;SDS011;37062;52.546;13.230;2023-01-09T10:52:27;6.57;;;5.68;;
51034;SDS011;37062;52.546;13.230;2023-01-09T10:55:01;5.72;;;5.05;;
51034;SDS011;37062;52.546;13.230;2023-01-09T10:57:40;7.57;;;4.82;;
51034;SDS011;37062;52.546;13.230;2023-01-09T11:00:13;4.88;;;4.38;;
51034;SDS011;37062;52.546;13.230;2023-01-09T11:02:47;6.43;;;5.30;;
51034;SDS011;37062;52.546;13.230;2023-01-09T11:05:18;6.30;;;5.55;;
51034;SDS011;37062;52.546;13.230;2023-01-09T11:07:48;6.85;;;5.20;;
51034;SDS011;37062;52.546;13.230;2023-01-09T11:10:21;5.93;;;4.63;;
51034;SDS011;37062;52.546;13.230;2023-01-09T11:12:50;7.13;;;4.90;;
51034;SDS011;37062;52.546;13.230;2023-01-09T11:15:30;4.95;;;4.43;;
51034;SDS011;37062;52.546;13.230;2023-01-09T11:20:46;5.20;;;3.72;;
51034;SDS011;37062;52.546;13.230;2023-01-09T11:23:22;5.45;;;4.53;;
51034;SDS011;37062;52.546;13.230;2023-01-09T11:25:55;5.68;;;4.53;;
51034;SDS011;37062;52.546;13.230;2023-01-09T11:28:24;4.32;;;3.92;;
51034;SDS011;37062;52.546;13.230;2023-01-09T11:30:54;4.75;;;3.55;;
51034;SDS011;37062;52.546;13.230;2023-01-09T11:33:26;5.85;;;3.90;;
51034;SDS011;37062;52.546;13.230;2023-01-09T11:35:58;5.22;;;3.88;;
51034;SDS011;37062;52.546;13.230;2023-01-09T11:38:29;6.25;;;3.63;;
51034;SDS011;37062;52.546;13.230;2023-01-09T11:41:01;4.78;;;3.42;;
51034;SDS011;37062;52.546;13.230;2023-01-09T11:43:32;3.55;;;3.25;;
51034;SDS011;37062;52.546;13.230;2023-01-09T11:46:04;4.40;;;3.33;;
51034;SDS011;37062;52.546;13.230;2023-01-09T11:48:38;5.03;;;3.53;;
51034;SDS011;37062;52.546;13.230;2023-01-09T11:51:16;4.28;;;3.10;;
51034;SDS011;37062;52.546;13.230;2023-01-09T11:56:40;4.38;;;3.05;;
51034;SDS011;37062;52.546;13.230;2023-01-09T11:59:10;4.75;;;3.10;;
51034;SDS011;37062;52.546;13.230;2023-01-09T12:01:46;4.53;;;3.50;;
51034;SDS011;37062;52.546;13.230;2023-01-09T12:04:24;6.65;;;3.17;;
51034;SDS011;37062;52.546;13.230;2023-01-09T12:10:04;4.30;;;3.50;;
51034;SDS011;37062;52.546;13.230;2023-01-09T12:12:49;6.25;;;3.85;;
51034;SDS011;37062;52.546;13.230;2023-01-09T12:15:28;7.68;;;4.78;;
51034;SDS011;37062;52.546;13.230;2023-01-09T12:18:14;8.77;;;5.57;;
51034;SDS011;37062;52.546;13.230;2023-01-09T12:21:00;5.68;;;3.20;;
51034;SDS011;37062;52.546;13.230;2023-01-09T12:23:45;5.20;;;2.92;;
51034;SDS011;37062;52.546;13.230;2023-01-09T12:26:30;6.15;;;3.38;;
51034;SDS011;37062;52.546;13.230;2023-01-09T12:29:03;9.30;;;3.78;;
51034;SDS011;37062;52.546;13.230;2023-01-09T12:31:52;4.03;;;3.05;;
51034;SDS011;37062;52.546;13.230;2023-01-09T12:34:43;4.97;;;2.13;;
51034;SDS011;37062;52.546;13.230;2023-01-09T12:37:31;5.90;;;2.92;;
51034;SDS011;37062;52.546;13.230;2023-01-09T12:40:23;5.03;;;2.20;;
51034;SDS011;37062;52.546;13.230;2023-01-09T12:43:07;2.97;;;2.03;;
51034;SDS011;37062;52.546;13.230;2023-01-09T12:45:50;3.17;;;1.92;;
51034;SDS011;37062;52.546;13.230;2023-01-09T12:48:31;3.65;;;2.08;;
51034;SDS011;37062;52.546;13.230;2023-01-09T12:51:17;2.45;;;2.10;;
51034;SDS011;37062;52.546;13.230;2023-01-09T12:53:56;6.32;;;2.05;;
51034;SDS011;37062;52.546;13.230;2023-01-09T12:56:29;4.90;;;2.40;;
51034;SDS011;37062;52.546;13.230;2023-01-09T12:59:03;4.40;;;2.03;;
51034;SDS011;37062;52.546;13.230;2023-01-09T13:01:41;4.05;;;2.30;;
51034;SDS011;37062;52.546;13.230;2023-01-09T13:04:14;4.07;;;1.88;;
51034;SDS011;37062;52.546;13.230;2023-01-09T13:06:49;4.72;;;2.00;;
51034;SDS011;37062;52.546;13.230;2023-01-09T13:09:22;7.07;;;2.03;;
51034;SDS011;37062;52.546;13.230;2023-01-09T13:11:56;7.15;;;2.83;;
51034;SDS011;37062;52.546;13.230;2023-01-09T13:14:36;3.78;;;2.10;;
51034;SDS011;37062;52.546;13.230;2023-01-09T13:17:13;5.25;;;3.05;;
51034;SDS011;37062;52.546;13.230;2023-01-09T13:19:46;4.93;;;2.10;;
51034;SDS011;37062;52.546;13.230;2023-01-09T13:22:14;5.68;;;2.40;;
51034;SDS011;37062;52.546;13.230;2023-01-09T13:24:52;5.80;;;2.20;;
51034;SDS011;37062;52.546;13.230;2023-01-09T13:27:33;4.60;;;2.30;;
51034;SDS011;37062;52.546;13.230;2023-01-09T13:30:16;3.33;;;1.85;;
51034;SDS011;37062;52.546;13.230;2023-01-09T13:32:55;3.67;;;2.25;;
51034;SDS011;37062;52.546;13.230;2023-01-09T13:35:29;5.38;;;2.08;;
51034;SDS011;37062;52.546;13.230;2023-01-09T13:37:58;4.70;;;2.75;;
51034;SDS011;37062;52.546;13.230;2023-01-09T13:40:27;3.20;;;2.15;;
51034;SDS011;37062;52.546;13.230;2023-01-09T13:43:00;3.45;;;2.03;;
51034;SDS011;37062;52.546;13.230;2023-01-09T13:45:31;3.40;;;2.00;;
51034;SDS011;37062;52.546;13.230;2023-01-09T13:48:23;3.63;;;1.77;;
51034;SDS011;37062;52.546;13.230;2023-01-09T13:57:29;6.65;;;1.83;;
51034;SDS011;37062;52.546;13.230;2023-01-09T14:03:17;6.55;;;2.25;;
51034;SDS011;37062;52.546;13.230;2023-01-09T14:08:46;4.38;;;1.90;;
51034;SDS011;37062;52.546;13.230;2023-01-09T14:11:20;4.82;;;2.55;;
51034;SDS011;37062;52.546;13.230;2023-01-09T14:13:58;3.05;;;2.08;;
51034;SDS011;37062;52.546;13.230;2023-01-09T14:16:29;5.70;;;2.30;;
51034;SDS011;37062;52.546;13.230;2023-01-09T14:19:03;4.95;;;2.10;;
51034;SDS011;37062;52.546;13.230;2023-01-09T14:21:43;3.58;;;1.95;;
51034;SDS011;37062;52.546;13.230;2023-01-09T14:24:18;7.85;;;2.60;;
51034;SDS011;37062;52.546;13.230;2023-01-09T14:26:49;5.32;;;2.20;;
51034;SDS011;37062;52.546;13.230;2023-01-09T14:29:39;4.30;;;2.40;;
51034;SDS011;37062;52.546;13.230;2023-01-09T14:35:12;4.03;;;2.05;;
51034;SDS011;37062;52.546;13.230;2023-01-09T14:37:48;5.25;;;2.30;;
51034;SDS011;37062;52.546;13.230;2023-01-09T14:40:26;3.55;;;2.30;;
51034;SDS011;37062;52.546;13.230;2023-01-09T14:42:55;3.63;;;1.77;;
51034;SDS011;37062;52.546;13.230;2023-01-09T14:45:28;3.15;;;1.90;;
51034;SDS011;37062;52.546;13.230;2023-01-09T14:47:59;3.90;;;1.90;;
51034;SDS011;37062;52.546;13.230;2023-01-09T14:50:31;4.78;;;2.10;;
51034;SDS011;37062;52.546;13.230;2023-01-09T14:53:05;4.43;;;2.00;;
51034;SDS011;37062;52.546;13.230;2023-01-09T14:55:40;6.05;;;2.80;;
51034;SDS011;37062;52.546;13.230;2023-01-09T14:58:23;3.55;;;2.03;;
51034;SDS011;37062;52.546;13.230;2023-01-09T15:00:56;3.70;;;2.17;;
51034;SDS011;37062;52.546;13.230;2023-01-09T15:03:28;6.80;;;2.30;;
51034;SDS011;37062;52.546;13.230;2023-01-09T15:06:01;8.80;;;3.53;;
51034;SDS011;37062;52.546;13.230;2023-01-09T15:08:31;6.03;;;2.40;;
51034;SDS011;37062;52.546;13.230;2023-01-09T15:11:00;9.50;;;2.63;;
51034;SDS011;37062;52.546;13.230;2023-01-09T15:13:30;3.40;;;2.30;;
51034;SDS011;37062;52.546;13.230;2023-01-09T15:16:02;4.32;;;2.60;;
51034;SDS011;37062;52.546;13.230;2023-01-09T15:18:34;4.50;;;2.92;;
51034;SDS011;37062;52.546;13.230;2023-01-09T15:21:12;4.80;;;2.50;;